sensor_id;sensor_type;location;lat;lon;timestamp;P1;durP1;ratioP1;P2;durP2;ratioP2
52866;SDS011;38739;53.324;6.862;2023-07-31T00:01:56;8.23;;;4.10;;
52866;SDS011;38739;53.324;6.862;2023-07-31T00:04:22;6.35;;;3.60;;
52866;SDS011;38739;53.324;6.862;2023-07-31T00:06:48;5.35;;;3.97;;
52866;SDS011;38739;53.324;6.862;2023-07-31T00:09:13;5.70;;;3.53;;
52866;SDS011;38739;53.324;6.862;2023-07-31T00:11:39;5.10;;;3.90;;
52866;SDS011;38739;53.324;6.862;2023-07-31T00:14:08;6.63;;;3.83;;
52866;SDS011;38739;53.324;6.862;2023-07-31T00:16:33;6.80;;;4.00;;
52866;SDS011;38739;53.324;6.862;2023-07-31T00:18:59;5.80;;;3.72;;
52866;SDS011;38739;53.324;6.862;2023-07-31T00:21:25;5.15;;;4.10;;
52866;SDS011;38739;53.324;6.862;2023-07-31T00:23:50;6.75;;;4.25;;
52866;SDS011;38739;53.324;6.862;2023-07-31T00:26:16;7.85;;;4.47;;
52866;SDS011;38739;53.324;6.862;2023-07-31T00:28:42;5.80;;;4.68;;
52866;SDS011;38739;53.324;6.862;2023-07-31T00:31:07;7.45;;;4.38;;
52866;SDS011;38739;53.324;6.862;2023-07-31T00:33:34;7.18;;;4.50;;
52866;SDS011;38739;53.324;6.862;2023-07-31T00:36:01;7.25;;;4.45;;
52866;SDS011;38739;53.324;6.862;2023-07-31T00:38:27;5.70;;;4.10;;
52866;SDS011;38739;53.324;6.862;2023-07-31T00:40:53;7.05;;;4.40;;
52866;SDS011;38739;53.324;6.862;2023-07-31T00:43:18;5.82;;;4.22;;
52866;SDS011;38739;53.324;6.862;2023-07-31T00:45:44;4.93;;;3.92;;
52866;SDS011;38739;53.324;6.862;2023-07-31T00:48:10;4.30;;;3.90;;
52866;SDS011;38739;53.324;6.862;2023-07-31T00:50:36;4.13;;;3.60;;
52866;SDS011;38739;53.324;6.862;2023-07-31T00:53:04;5.25;;;3.72;;
52866;SDS011;38739;53.324;6.862;2023-07-31T00:55:29;4.90;;;3.88;;
52866;SDS011;38739;53.324;6.862;2023-07-31T00:57:55;7.65;;;3.67;;
52866;SDS011;38739;53.324;6.862;2023-07-31T01:00:21;4.45;;;3.33;;
52866;SDS011;38739;53.324;6.862;2023-07-31T01:02:48;5.15;;;3.70;;
52866;SDS011;38739;53.324;6.862;2023-07-31T01:05:15;5.20;;;3.22;;
52866;SDS011;38739;53.324;6.862;2023-07-31T01:08:00;4.30;;;3.30;;
52866;SDS011;38739;53.324;6.862;2023-07-31T01:10:35;3.38;;;3.03;;
52866;SDS011;38739;53.324;6.862;2023-07-31T01:13:14;3.15;;;2.85;;
52866;SDS011;38739;53.324;6.862;2023-07-31T01:15:40;3.38;;;2.90;;
52866;SDS011;38739;53.324;6.862;2023-07-31T01:18:06;15.65;;;4.60;;
52866;SDS011;38739;53.324;6.862;2023-07-31T01:20:31;7.30;;;4.05;;
52866;SDS011;38739;53.324;6.862;2023-07-31T01:28:31;5.15;;;3.10;;
52866;SDS011;38739;53.324;6.862;2023-07-31T01:31:04;6.70;;;3.53;;
52866;SDS011;38739;53.324;6.862;2023-07-31T01:33:33;5.07;;;3.55;;
52866;SDS011;38739;53.324;6.862;2023-07-31T01:36:00;7.53;;;4.10;;
52866;SDS011;38739;53.324;6.862;2023-07-31T01:38:26;4.97;;;4.05;;
52866;SDS011;38739;53.324;6.862;2023-07-31T01:40:52;6.15;;;4.15;;
52866;SDS011;38739;53.324;6.862;2023-07-31T01:43:18;5.82;;;4.10;;
52866;SDS011;38739;53.324;6.862;2023-07-31T01:45:45;4.93;;;4.13;;
52866;SDS011;38739;53.324;6.862;2023-07-31T01:48:10;5.85;;;4.25;;
52866;SDS011;38739;53.324;6.862;2023-07-31T01:50:36;5.15;;;4.07;;
52866;SDS011;38739;53.324;6.862;2023-07-31T01:53:02;5.80;;;3.78;;
52866;SDS011;38739;53.324;6.862;2023-07-31T01:55:27;5.38;;;3.90;;
52866;SDS011;38739;53.324;6.862;2023-07-31T01:57:53;4.18;;;3.67;;
52866;SDS011;38739;53.324;6.862;2023-07-31T02:00:19;5.32;;;3.38;;
52866;SDS011;38739;53.324;6.862;2023-07-31T02:02:44;5.53;;;3.35;;
52866;SDS011;38739;53.324;6.862;2023-07-31T02:05:10;4.35;;;3.20;;
52866;SDS011;38739;53.324;6.862;2023-07-31T02:07:35;4.15;;;3.17;;
52866;SDS011;38739;53.324;6.862;2023-07-31T02:10:01;4.68;;;3.15;;
52866;SDS011;38739;53.324;6.862;2023-07-31T02:12:27;4.30;;;2.97;;
52866;SDS011;38739;53.324;6.862;2023-07-31T02:14:56;5.45;;;3.00;;
52866;SDS011;38739;53.324;6.862;2023-07-31T02:17:21;5.13;;;2.70;;
52866;SDS011;38739;53.324;6.862;2023-07-31T02:19:47;5.32;;;2.90;;
52866;SDS011;38739;53.324;6.862;2023-07-31T02:22:13;5.10;;;3.30;;
52866;SDS011;38739;53.324;6.862;2023-07-31T02:24:39;5.80;;;3.08;;
52866;SDS011;38739;53.324;6.862;2023-07-31T02:27:04;3.70;;;3.25;;
52866;SDS011;38739;53.324;6.862;2023-07-31T02:29:30;5.30;;;3.10;;
52866;SDS011;38739;53.324;6.862;2023-07-31T02:31:56;4.63;;;3.00;;
52866;SDS011;38739;53.324;6.862;2023-07-31T02:34:22;4.63;;;2.85;;
52866;SDS011;38739;53.324;6.862;2023-07-31T02:36:47;4.22;;;2.85;;
52866;SDS011;38739;53.324;6.862;2023-07-31T02:39:13;4.93;;;2.45;;
52866;SDS011;38739;53.324;6.862;2023-07-31T02:41:39;4.50;;;2.70;;
52866;SDS011;38739;53.324;6.862;2023-07-31T02:44:04;3.22;;;2.58;;
52866;SDS011;38739;53.324;6.862;2023-07-31T02:46:30;3.30;;;2.60;;
52866;SDS011;38739;53.324;6.862;2023-07-31T02:48:56;3.85;;;2.83;;
52866;SDS011;38739;53.324;6.862;2023-07-31T02:51:22;5.32;;;2.90;;
52866;SDS011;38739;53.324;6.862;2023-07-31T02:53:48;5.30;;;2.70;;
52866;SDS011;38739;53.324;6.862;2023-07-31T02:56:14;4.93;;;2.63;;
52866;SDS011;38739;53.324;6.862;2023-07-31T02:58:40;5.05;;;2.50;;
52866;SDS011;38739;53.324;6.862;2023-07-31T03:01:06;4.53;;;2.55;;
52866;SDS011;38739;53.324;6.862;2023-07-31T03:03:31;3.97;;;2.53;;
52866;SDS011;38739;53.324;6.862;2023-07-31T03:05:57;4.68;;;2.40;;
52866;SDS011;38739;53.324;6.862;2023-07-31T03:08:22;2.35;;;2.13;;
52866;SDS011;38739;53.324;6.862;2023-07-31T03:10:48;3.25;;;1.70;;
52866;SDS011;38739;53.324;6.862;2023-07-31T03:13:14;2.92;;;1.63;;
52866;SDS011;38739;53.324;6.862;2023-07-31T03:15:41;2.88;;;1.40;;
52866;SDS011;38739;53.324;6.862;2023-07-31T03:18:08;1.92;;;1.60;;
52866;SDS011;38739;53.324;6.862;2023-07-31T03:20:34;6.05;;;1.63;;
52866;SDS011;38739;53.324;6.862;2023-07-31T03:23:00;1.58;;;1.30;;
52866;SDS011;38739;53.324;6.862;2023-07-31T03:25:25;1.98;;;1.20;;
52866;SDS011;38739;53.324;6.862;2023-07-31T03:27:51;6.65;;;1.40;;
52866;SDS011;38739;53.324;6.862;2023-07-31T03:30:17;3.35;;;1.40;;
52866;SDS011;38739;53.324;6.862;2023-07-31T03:32:42;3.33;;;1.30;;
52866;SDS011;38739;53.324;6.862;2023-07-31T03:35:08;3.45;;;1.35;;
52866;SDS011;38739;53.324;6.862;2023-07-31T03:37:34;2.72;;;1.17;;
52866;SDS011;38739;53.324;6.862;2023-07-31T03:39:59;2.13;;;1.20;;
52866;SDS011;38739;53.324;6.862;2023-07-31T03:42:25;2.53;;;1.10;;
52866;SDS011;38739;53.324;6.862;2023-07-31T03:44:51;3.05;;;1.10;;
52866;SDS011;38739;53.324;6.862;2023-07-31T03:47:16;2.03;;;1.20;;
52866;SDS011;38739;53.324;6.862;2023-07-31T03:49:42;2.15;;;1.00;;
52866;SDS011;38739;53.324;6.862;2023-07-31T03:52:08;3.17;;;1.00;;
52866;SDS011;38739;53.324;6.862;2023-07-31T03:54:33;3.08;;;1.10;;
52866;SDS011;38739;53.324;6.862;2023-07-31T03:56:59;1.13;;;0.95;;
52866;SDS011;38739;53.324;6.862;2023-07-31T03:59:25;1.88;;;1.27;;
52866;SDS011;38739;53.324;6.862;2023-07-31T04:01:50;2.78;;;1.30;;
52866;SDS011;38739;53.324;6.862;2023-07-31T04:04:16;3.72;;;1.20;;
52866;SDS011;38739;53.324;6.862;2023-07-31T04:06:42;3.05;;;1.15;;
52866;SDS011;38739;53.324;6.862;2023-07-31T04:09:07;2.33;;;1.30;;
52866;SDS011;38739;53.324;6.862;2023-07-31T04:11:33;3.42;;;1.27;;
52866;SDS011;38739;53.324;6.862;2023-07-31T04:13:59;3.28;;;1.30;;
52866;SDS011;38739;53.324;6.862;2023-07-31T04:16:24;1.92;;;1.17;;
52866;SDS011;38739;53.324;6.862;2023-07-31T04:18:50;2.85;;;1.30;;
52866;SDS011;38739;53.324;6.862;2023-07-31T04:21:16;3.85;;;1.30;;
52866;SDS011;38739;53.324;6.862;2023-07-31T04:23:42;4.18;;;1.48;;
52866;SDS011;38739;53.324;6.862;2023-07-31T04:26:08;2.88;;;1.38;;
52866;SDS011;38739;53.324;6.862;2023-07-31T04:28:34;3.22;;;1.30;;
52866;SDS011;38739;53.324;6.862;2023-07-31T04:30:59;2.53;;;1.52;;
52866;SDS011;38739;53.324;6.862;2023-07-31T04:33:25;1.48;;;1.20;;
52866;SDS011;38739;53.324;6.862;2023-07-31T04:35:51;6.55;;;1.60;;
52866;SDS011;38739;53.324;6.862;2023-07-31T04:38:18;2.55;;;1.38;;
52866;SDS011;38739;53.324;6.862;2023-07-31T04:40:45;4.05;;;1.55;;
52866;SDS011;38739;53.324;6.862;2023-07-31T04:43:11;2.90;;;1.15;;
52866;SDS011;38739;53.324;6.862;2023-07-31T04:45:37;4.93;;;1.48;;
52866;SDS011;38739;53.324;6.862;2023-07-31T04:48:03;2.63;;;1.25;;
52866;SDS011;38739;53.324;6.862;2023-07-31T04:50:29;4.38;;;1.50;;
52866;SDS011;38739;53.324;6.862;2023-07-31T04:52:55;2.83;;;1.50;;
52866;SDS011;38739;53.324;6.862;2023-07-31T04:55:21;3.10;;;1.45;;
52866;SDS011;38739;53.324;6.862;2023-07-31T04:57:47;2.38;;;1.30;;
52866;SDS011;38739;53.324;6.862;2023-07-31T05:00:13;4.15;;;1.45;;
52866;SDS011;38739;53.324;6.862;2023-07-31T05:02:38;3.38;;;1.60;;
52866;SDS011;38739;53.324;6.862;2023-07-31T05:05:04;2.42;;;1.33;;
52866;SDS011;38739;53.324;6.862;2023-07-31T05:07:30;4.07;;;1.65;;
52866;SDS011;38739;53.324;6.862;2023-07-31T05:09:55;4.72;;;1.80;;
52866;SDS011;38739;53.324;6.862;2023-07-31T05:12:21;2.45;;;1.45;;
52866;SDS011;38739;53.324;6.862;2023-07-31T05:14:47;4.70;;;1.45;;
52866;SDS011;38739;53.324;6.862;2023-07-31T05:17:12;4.90;;;1.40;;
52866;SDS011;38739;53.324;6.862;2023-07-31T05:19:38;2.35;;;1.30;;
52866;SDS011;38739;53.324;6.862;2023-07-31T05:22:04;2.53;;;1.40;;
52866;SDS011;38739;53.324;6.862;2023-07-31T05:24:30;4.05;;;1.50;;
52866;SDS011;38739;53.324;6.862;2023-07-31T05:26:55;2.60;;;1.13;;
52866;SDS011;38739;53.324;6.862;2023-07-31T05:29:21;3.22;;;1.30;;
52866;SDS011;38739;53.324;6.862;2023-07-31T05:31:47;3.70;;;1.40;;
52866;SDS011;38739;53.324;6.862;2023-07-31T05:34:12;3.55;;;1.30;;
52866;SDS011;38739;53.324;6.862;2023-07-31T05:36:38;2.13;;;1.30;;
52866;SDS011;38739;53.324;6.862;2023-07-31T05:39:04;4.28;;;1.40;;
52866;SDS011;38739;53.324;6.862;2023-07-31T05:41:32;2.10;;;1.35;;
52866;SDS011;38739;53.324;6.862;2023-07-31T05:43:57;3.67;;;1.17;;
52866;SDS011;38739;53.324;6.862;2023-07-31T05:46:23;2.33;;;1.42;;
52866;SDS011;38739;53.324;6.862;2023-07-31T05:48:49;1.67;;;1.13;;
52866;SDS011;38739;53.324;6.862;2023-07-31T05:51:14;1.20;;;1.10;;
52866;SDS011;38739;53.324;6.862;2023-07-31T05:53:40;3.10;;;1.15;;
52866;SDS011;38739;53.324;6.862;2023-07-31T05:56:06;2.17;;;1.13;;
52866;SDS011;38739;53.324;6.862;2023-07-31T05:58:32;1.80;;;1.00;;
52866;SDS011;38739;53.324;6.862;2023-07-31T06:00:57;2.20;;;1.00;;
52866;SDS011;38739;53.324;6.862;2023-07-31T06:03:23;4.13;;;1.20;;
52866;SDS011;38739;53.324;6.862;2023-07-31T06:05:49;3.92;;;1.00;;
52866;SDS011;38739;53.324;6.862;2023-07-31T06:08:15;1.23;;;0.80;;
52866;SDS011;38739;53.324;6.862;2023-07-31T06:10:40;2.63;;;0.90;;
52866;SDS011;38739;53.324;6.862;2023-07-31T06:13:06;2.63;;;0.90;;
52866;SDS011;38739;53.324;6.862;2023-07-31T06:15:32;2.20;;;1.20;;
52866;SDS011;38739;53.324;6.862;2023-07-31T06:17:57;3.33;;;0.70;;
52866;SDS011;38739;53.324;6.862;2023-07-31T06:20:24;2.60;;;0.80;;
52866;SDS011;38739;53.324;6.862;2023-07-31T06:22:50;4.25;;;0.70;;
52866;SDS011;38739;53.324;6.862;2023-07-31T06:25:15;2.25;;;0.60;;
52866;SDS011;38739;53.324;6.862;2023-07-31T06:27:41;1.27;;;0.50;;
52866;SDS011;38739;53.324;6.862;2023-07-31T06:30:07;2.40;;;0.60;;
52866;SDS011;38739;53.324;6.862;2023-07-31T06:32:33;1.60;;;0.70;;
52866;SDS011;38739;53.324;6.862;2023-07-31T06:34:58;1.20;;;0.60;;
52866;SDS011;38739;53.324;6.862;2023-07-31T06:37:24;0.90;;;0.70;;
52866;SDS011;38739;53.324;6.862;2023-07-31T06:39:50;3.05;;;0.80;;
52866;SDS011;38739;53.324;6.862;2023-07-31T06:42:15;1.50;;;0.80;;
52866;SDS011;38739;53.324;6.862;2023-07-31T06:44:41;1.83;;;0.68;;
52866;SDS011;38739;53.324;6.862;2023-07-31T06:47:07;0.85;;;0.80;;
52866;SDS011;38739;53.324;6.862;2023-07-31T06:49:32;1.80;;;0.77;;
52866;SDS011;38739;53.324;6.862;2023-07-31T06:51:58;1.75;;;0.88;;
52866;SDS011;38739;53.324;6.862;2023-07-31T06:54:24;1.75;;;0.90;;
52866;SDS011;38739;53.324;6.862;2023-07-31T06:56:49;2.03;;;0.88;;
52866;SDS011;38739;53.324;6.862;2023-07-31T06:59:15;3.25;;;1.40;;
52866;SDS011;38739;53.324;6.862;2023-07-31T07:01:41;3.40;;;1.52;;
52866;SDS011;38739;53.324;6.862;2023-07-31T07:04:06;3.17;;;1.55;;
52866;SDS011;38739;53.324;6.862;2023-07-31T07:06:32;3.25;;;1.70;;
52866;SDS011;38739;53.324;6.862;2023-07-31T07:08:57;4.05;;;1.73;;
52866;SDS011;38739;53.324;6.862;2023-07-31T07:11:23;8.23;;;2.70;;
52866;SDS011;38739;53.324;6.862;2023-07-31T07:13:49;7.22;;;2.80;;
52866;SDS011;38739;53.324;6.862;2023-07-31T07:16:15;8.18;;;3.13;;
52866;SDS011;38739;53.324;6.862;2023-07-31T07:18:40;9.45;;;3.20;;
52866;SDS011;38739;53.324;6.862;2023-07-31T07:21:06;8.18;;;3.08;;
52866;SDS011;38739;53.324;6.862;2023-07-31T07:23:32;12.98;;;4.20;;
52866;SDS011;38739;53.324;6.862;2023-07-31T07:25:57;16.27;;;4.65;;
52866;SDS011;38739;53.324;6.862;2023-07-31T07:28:23;11.02;;;4.97;;
52866;SDS011;38739;53.324;6.862;2023-07-31T07:30:52;18.20;;;5.53;;
52866;SDS011;38739;53.324;6.862;2023-07-31T07:35:46;17.35;;;6.05;;
52866;SDS011;38739;53.324;6.862;2023-07-31T07:38:13;17.27;;;6.07;;
52866;SDS011;38739;53.324;6.862;2023-07-31T07:40:40;16.10;;;6.40;;
52866;SDS011;38739;53.324;6.862;2023-07-31T07:43:06;16.95;;;6.20;;
52866;SDS011;38739;53.324;6.862;2023-07-31T07:45:31;24.88;;;7.50;;
52866;SDS011;38739;53.324;6.862;2023-07-31T07:47:57;18.67;;;6.68;;
52866;SDS011;38739;53.324;6.862;2023-07-31T07:50:24;20.10;;;6.97;;
52866;SDS011;38739;53.324;6.862;2023-07-31T07:52:50;21.48;;;7.47;;
52866;SDS011;38739;53.324;6.862;2023-07-31T07:55:16;25.70;;;7.22;;
52866;SDS011;38739;53.324;6.862;2023-07-31T07:57:42;21.30;;;6.95;;
52866;SDS011;38739;53.324;6.862;2023-07-31T08:00:09;24.98;;;8.35;;
52866;SDS011;38739;53.324;6.862;2023-07-31T08:02:35;21.35;;;7.57;;
52866;SDS011;38739;53.324;6.862;2023-07-31T08:05:01;20.63;;;7.78;;
52866;SDS011;38739;53.324;6.862;2023-07-31T08:07:27;20.00;;;7.50;;
52866;SDS011;38739;53.324;6.862;2023-07-31T08:09:52;20.10;;;7.25;;
52866;SDS011;38739;53.324;6.862;2023-07-31T08:12:18;15.18;;;5.78;;
52866;SDS011;38739;53.324;6.862;2023-07-31T08:14:44;12.30;;;4.75;;
52866;SDS011;38739;53.324;6.862;2023-07-31T08:17:09;7.88;;;3.67;;
52866;SDS011;38739;53.324;6.862;2023-07-31T08:19:35;11.27;;;4.00;;
52866;SDS011;38739;53.324;6.862;2023-07-31T08:22:01;9.75;;;4.07;;
52866;SDS011;38739;53.324;6.862;2023-07-31T08:24:26;8.43;;;3.38;;
52866;SDS011;38739;53.324;6.862;2023-07-31T08:26:52;5.38;;;2.50;;
52866;SDS011;38739;53.324;6.862;2023-07-31T08:29:18;6.28;;;3.15;;
52866;SDS011;38739;53.324;6.862;2023-07-31T08:31:43;5.47;;;2.78;;
52866;SDS011;38739;53.324;6.862;2023-07-31T08:34:09;6.88;;;2.50;;
52866;SDS011;38739;53.324;6.862;2023-07-31T08:36:35;3.88;;;1.90;;
52866;SDS011;38739;53.324;6.862;2023-07-31T08:39:00;5.57;;;1.85;;
52866;SDS011;38739;53.324;6.862;2023-07-31T08:41:27;4.72;;;1.90;;
52866;SDS011;38739;53.324;6.862;2023-07-31T08:43:52;4.28;;;1.80;;
52866;SDS011;38739;53.324;6.862;2023-07-31T08:46:20;3.67;;;1.90;;
52866;SDS011;38739;53.324;6.862;2023-07-31T08:48:46;3.80;;;1.92;;
52866;SDS011;38739;53.324;6.862;2023-07-31T08:51:13;3.85;;;1.77;;
52866;SDS011;38739;53.324;6.862;2023-07-31T08:53:39;5.80;;;2.03;;
52866;SDS011;38739;53.324;6.862;2023-07-31T08:56:05;3.20;;;1.83;;
52866;SDS011;38739;53.324;6.862;2023-07-31T08:58:32;3.95;;;2.22;;
52866;SDS011;38739;53.324;6.862;2023-07-31T09:01:00;3.40;;;2.00;;
52866;SDS011;38739;53.324;6.862;2023-07-31T09:03:28;3.47;;;1.88;;
52866;SDS011;38739;53.324;6.862;2023-07-31T09:05:58;3.53;;;1.70;;
52866;SDS011;38739;53.324;6.862;2023-07-31T09:08:24;2.58;;;1.73;;
52866;SDS011;38739;53.324;6.862;2023-07-31T09:10:54;3.25;;;1.40;;
52866;SDS011;38739;53.324;6.862;2023-07-31T09:13:25;1.63;;;1.30;;
52866;SDS011;38739;53.324;6.862;2023-07-31T09:15:52;3.50;;;1.30;;
52866;SDS011;38739;53.324;6.862;2023-07-31T09:18:18;3.47;;;1.50;;
52866;SDS011;38739;53.324;6.862;2023-07-31T09:20:59;2.97;;;1.40;;
52866;SDS011;38739;53.324;6.862;2023-07-31T09:23:26;2.55;;;1.20;;
52866;SDS011;38739;53.324;6.862;2023-07-31T09:26:08;2.53;;;1.60;;
52866;SDS011;38739;53.324;6.862;2023-07-31T09:28:34;2.67;;;1.30;;
52866;SDS011;38739;53.324;6.862;2023-07-31T09:31:00;2.20;;;1.30;;
52866;SDS011;38739;53.324;6.862;2023-07-31T09:33:26;2.47;;;1.35;;
52866;SDS011;38739;53.324;6.862;2023-07-31T09:35:52;2.17;;;1.30;;
52866;SDS011;38739;53.324;6.862;2023-07-31T09:38:17;2.08;;;1.10;;
52866;SDS011;38739;53.324;6.862;2023-07-31T09:40:45;1.50;;;0.80;;
52866;SDS011;38739;53.324;6.862;2023-07-31T09:43:13;2.95;;;0.80;;
52866;SDS011;38739;53.324;6.862;2023-07-31T09:45:44;1.75;;;0.88;;
52866;SDS011;38739;53.324;6.862;2023-07-31T09:50:38;2.08;;;0.82;;
52866;SDS011;38739;53.324;6.862;2023-07-31T09:53:05;0.90;;;0.77;;
52866;SDS011;38739;53.324;6.862;2023-07-31T09:55:31;1.13;;;0.80;;
52866;SDS011;38739;53.324;6.862;2023-07-31T09:57:58;1.27;;;0.80;;
52866;SDS011;38739;53.324;6.862;2023-07-31T10:00:24;2.03;;;0.95;;
52866;SDS011;38739;53.324;6.862;2023-07-31T10:02:53;1.15;;;0.88;;
52866;SDS011;38739;53.324;6.862;2023-07-31T10:05:19;0.82;;;0.82;;
52866;SDS011;38739;53.324;6.862;2023-07-31T10:07:55;1.20;;;0.80;;
52866;SDS011;38739;53.324;6.862;2023-07-31T10:10:22;1.35;;;0.80;;
52866;SDS011;38739;53.324;6.862;2023-07-31T10:12:50;1.08;;;0.73;;
52866;SDS011;38739;53.324;6.862;2023-07-31T10:15:18;1.13;;;0.80;;
52866;SDS011;38739;53.324;6.862;2023-07-31T10:17:44;2.15;;;0.80;;
52866;SDS011;38739;53.324;6.862;2023-07-31T10:20:12;1.23;;;0.70;;
52866;SDS011;38739;53.324;6.862;2023-07-31T10:22:41;2.53;;;0.70;;
52866;SDS011;38739;53.324;6.862;2023-07-31T10:25:08;1.55;;;0.60;;
52866;SDS011;38739;53.324;6.862;2023-07-31T10:27:40;0.88;;;0.50;;
52866;SDS011;38739;53.324;6.862;2023-07-31T10:30:14;0.75;;;0.50;;
52866;SDS011;38739;53.324;6.862;2023-07-31T10:32:42;1.35;;;0.40;;
52866;SDS011;38739;53.324;6.862;2023-07-31T10:35:09;1.33;;;0.47;;
52866;SDS011;38739;53.324;6.862;2023-07-31T10:40:10;1.15;;;0.60;;
52866;SDS011;38739;53.324;6.862;2023-07-31T10:45:23;1.30;;;0.50;;
52866;SDS011;38739;53.324;6.862;2023-07-31T10:48:02;1.02;;;0.50;;
52866;SDS011;38739;53.324;6.862;2023-07-31T10:50:38;1.80;;;0.40;;
52866;SDS011;38739;53.324;6.862;2023-07-31T10:53:22;0.82;;;0.40;;
52866;SDS011;38739;53.324;6.862;2023-07-31T10:55:49;0.50;;;0.30;;
52866;SDS011;38739;53.324;6.862;2023-07-31T10:58:18;0.90;;;0.30;;
52866;SDS011;38739;53.324;6.862;2023-07-31T11:00:45;0.45;;;0.30;;
52866;SDS011;38739;53.324;6.862;2023-07-31T11:03:14;1.17;;;0.30;;
52866;SDS011;38739;53.324;6.862;2023-07-31T11:08:23;0.25;;;0.15;;
52866;SDS011;38739;53.324;6.862;2023-07-31T11:16:17;2.13;;;0.60;;
52866;SDS011;38739;53.324;6.862;2023-07-31T11:18:45;5.57;;;0.90;;
52866;SDS011;38739;53.324;6.862;2023-07-31T11:21:16;0.98;;;0.52;;
52866;SDS011;38739;53.324;6.862;2023-07-31T11:23:50;1.77;;;0.40;;
52866;SDS011;38739;53.324;6.862;2023-07-31T11:26:17;1.10;;;0.60;;
52866;SDS011;38739;53.324;6.862;2023-07-31T11:28:46;2.13;;;0.68;;
52866;SDS011;38739;53.324;6.862;2023-07-31T11:31:12;1.73;;;0.90;;
52866;SDS011;38739;53.324;6.862;2023-07-31T11:33:39;2.08;;;1.08;;
52866;SDS011;38739;53.324;6.862;2023-07-31T11:36:05;3.05;;;1.15;;
52866;SDS011;38739;53.324;6.862;2023-07-31T11:38:31;4.93;;;1.63;;
52866;SDS011;38739;53.324;6.862;2023-07-31T11:41:03;2.70;;;1.50;;
52866;SDS011;38739;53.324;6.862;2023-07-31T11:43:30;4.00;;;1.77;;
52866;SDS011;38739;53.324;6.862;2023-07-31T11:45:57;6.10;;;1.90;;
52866;SDS011;38739;53.324;6.862;2023-07-31T11:48:28;2.78;;;1.60;;
52866;SDS011;38739;53.324;6.862;2023-07-31T11:50:58;2.45;;;1.35;;
52866;SDS011;38739;53.324;6.862;2023-07-31T11:56:16;2.95;;;1.25;;
52866;SDS011;38739;53.324;6.862;2023-07-31T11:58:43;2.13;;;1.05;;
52866;SDS011;38739;53.324;6.862;2023-07-31T12:01:12;2.08;;;1.00;;
52866;SDS011;38739;53.324;6.862;2023-07-31T12:03:40;2.58;;;1.00;;
52866;SDS011;38739;53.324;6.862;2023-07-31T12:06:07;3.60;;;1.38;;
52866;SDS011;38739;53.324;6.862;2023-07-31T12:08:33;6.45;;;1.58;;
52866;SDS011;38739;53.324;6.862;2023-07-31T12:11:07;6.80;;;1.50;;
52866;SDS011;38739;53.324;6.862;2023-07-31T12:13:40;2.33;;;1.20;;
52866;SDS011;38739;53.324;6.862;2023-07-31T12:16:05;3.67;;;1.38;;
52866;SDS011;38739;53.324;6.862;2023-07-31T12:18:35;2.90;;;1.23;;
52866;SDS011;38739;53.324;6.862;2023-07-31T12:21:06;2.83;;;1.10;;
52866;SDS011;38739;53.324;6.862;2023-07-31T12:23:34;3.50;;;1.17;;
52866;SDS011;38739;53.324;6.862;2023-07-31T12:28:27;2.00;;;1.00;;
52866;SDS011;38739;53.324;6.862;2023-07-31T12:30:52;2.97;;;1.00;;
52866;SDS011;38739;53.324;6.862;2023-07-31T12:33:27;3.70;;;1.52;;
52866;SDS011;38739;53.324;6.862;2023-07-31T12:36:02;3.03;;;1.25;;
52866;SDS011;38739;53.324;6.862;2023-07-31T12:38:29;6.25;;;1.30;;
52866;SDS011;38739;53.324;6.862;2023-07-31T12:40:55;2.45;;;1.33;;
52866;SDS011;38739;53.324;6.862;2023-07-31T12:43:21;30.27;;;2.92;;
52866;SDS011;38739;53.324;6.862;2023-07-31T12:45:47;114.97;;;6.53;;
52866;SDS011;38739;53.324;6.862;2023-07-31T12:48:13;4.35;;;1.10;;
52866;SDS011;38739;53.324;6.862;2023-07-31T12:50:39;2.72;;;0.90;;
52866;SDS011;38739;53.324;6.862;2023-07-31T12:53:04;2.70;;;1.00;;
52866;SDS011;38739;53.324;6.862;2023-07-31T12:55:31;7.63;;;1.40;;
52866;SDS011;38739;53.324;6.862;2023-07-31T12:57:59;4.10;;;1.00;;
52866;SDS011;38739;53.324;6.862;2023-07-31T13:00:25;2.53;;;1.00;;
52866;SDS011;38739;53.324;6.862;2023-07-31T13:02:51;3.63;;;1.00;;
52866;SDS011;38739;53.324;6.862;2023-07-31T13:05:17;4.15;;;1.38;;
52866;SDS011;38739;53.324;6.862;2023-07-31T13:07:44;3.17;;;1.20;;
52866;SDS011;38739;53.324;6.862;2023-07-31T13:10:11;3.00;;;1.17;;
52866;SDS011;38739;53.324;6.862;2023-07-31T13:12:36;2.75;;;1.30;;
52866;SDS011;38739;53.324;6.862;2023-07-31T13:15:03;2.75;;;1.20;;
52866;SDS011;38739;53.324;6.862;2023-07-31T13:17:29;5.85;;;1.13;;
52866;SDS011;38739;53.324;6.862;2023-07-31T13:19:55;3.60;;;1.10;;
52866;SDS011;38739;53.324;6.862;2023-07-31T13:22:21;3.42;;;1.25;;
52866;SDS011;38739;53.324;6.862;2023-07-31T13:24:46;1.98;;;1.15;;
52866;SDS011;38739;53.324;6.862;2023-07-31T13:27:12;2.42;;;1.10;;
52866;SDS011;38739;53.324;6.862;2023-07-31T13:29:39;3.17;;;1.25;;
52866;SDS011;38739;53.324;6.862;2023-07-31T13:32:05;3.42;;;1.17;;
52866;SDS011;38739;53.324;6.862;2023-07-31T13:34:30;1.38;;;1.20;;
52866;SDS011;38739;53.324;6.862;2023-07-31T13:36:56;3.00;;;1.30;;
52866;SDS011;38739;53.324;6.862;2023-07-31T13:39:22;4.18;;;1.45;;
52866;SDS011;38739;53.324;6.862;2023-07-31T13:41:47;3.13;;;1.40;;
52866;SDS011;38739;53.324;6.862;2023-07-31T13:44:13;2.67;;;1.30;;
52866;SDS011;38739;53.324;6.862;2023-07-31T13:46:39;5.95;;;1.58;;
52866;SDS011;38739;53.324;6.862;2023-07-31T13:49:05;2.47;;;1.50;;
52866;SDS011;38739;53.324;6.862;2023-07-31T13:51:31;3.92;;;1.85;;
52866;SDS011;38739;53.324;6.862;2023-07-31T13:53:56;3.88;;;1.92;;
52866;SDS011;38739;53.324;6.862;2023-07-31T13:56:22;2.97;;;1.70;;
52866;SDS011;38739;53.324;6.862;2023-07-31T13:58:48;4.30;;;1.50;;
52866;SDS011;38739;53.324;6.862;2023-07-31T14:01:13;5.70;;;1.88;;
52866;SDS011;38739;53.324;6.862;2023-07-31T14:03:39;7.05;;;2.10;;
52866;SDS011;38739;53.324;6.862;2023-07-31T14:06:05;4.97;;;1.83;;
52866;SDS011;38739;53.324;6.862;2023-07-31T14:08:30;5.15;;;1.90;;
52866;SDS011;38739;53.324;6.862;2023-07-31T14:10:56;4.32;;;1.80;;
52866;SDS011;38739;53.324;6.862;2023-07-31T14:13:22;6.22;;;1.70;;
52866;SDS011;38739;53.324;6.862;2023-07-31T14:15:47;9.10;;;2.17;;
52866;SDS011;38739;53.324;6.862;2023-07-31T14:18:13;5.97;;;2.10;;
52866;SDS011;38739;53.324;6.862;2023-07-31T14:20:39;4.20;;;1.70;;
52866;SDS011;38739;53.324;6.862;2023-07-31T14:23:04;8.40;;;1.88;;
52866;SDS011;38739;53.324;6.862;2023-07-31T14:25:30;5.32;;;2.00;;
52866;SDS011;38739;53.324;6.862;2023-07-31T14:27:56;7.80;;;2.17;;
52866;SDS011;38739;53.324;6.862;2023-07-31T14:30:21;5.53;;;2.30;;
52866;SDS011;38739;53.324;6.862;2023-07-31T14:32:48;7.15;;;2.40;;
52866;SDS011;38739;53.324;6.862;2023-07-31T14:35:14;7.05;;;2.33;;
52866;SDS011;38739;53.324;6.862;2023-07-31T14:37:40;4.55;;;2.28;;
52866;SDS011;38739;53.324;6.862;2023-07-31T14:40:08;5.38;;;2.20;;
52866;SDS011;38739;53.324;6.862;2023-07-31T14:42:35;5.60;;;2.20;;
52866;SDS011;38739;53.324;6.862;2023-07-31T14:45:01;7.03;;;2.80;;
52866;SDS011;38739;53.324;6.862;2023-07-31T14:47:28;5.60;;;2.08;;
52866;SDS011;38739;53.324;6.862;2023-07-31T14:49:56;5.13;;;2.40;;
52866;SDS011;38739;53.324;6.862;2023-07-31T14:52:21;6.07;;;2.20;;
52866;SDS011;38739;53.324;6.862;2023-07-31T14:54:47;5.28;;;2.25;;
52866;SDS011;38739;53.324;6.862;2023-07-31T14:57:13;6.75;;;2.38;;
52866;SDS011;38739;53.324;6.862;2023-07-31T14:59:38;4.28;;;2.33;;
52866;SDS011;38739;53.324;6.862;2023-07-31T15:02:04;6.55;;;2.63;;
52866;SDS011;38739;53.324;6.862;2023-07-31T15:04:31;6.68;;;2.88;;
52866;SDS011;38739;53.324;6.862;2023-07-31T15:06:57;9.25;;;2.85;;
52866;SDS011;38739;53.324;6.862;2023-07-31T15:09:22;6.47;;;2.90;;
52866;SDS011;38739;53.324;6.862;2023-07-31T15:11:48;5.60;;;3.10;;